Time;durP1;ratioP1;P1;durP2;ratioP2;P2;SDS_P1;SDS_P2;PMS_P1;PMS_P2;Temp;Humidity;BMP_temperature;BMP_pressure;BME280_temperature;BME280_humidity;BME280_pressure;Samples;Min_cycle;Max_cycle;Signal;HPM_P1;HPM_P2
2021/10/30 00:02:18;;;;;;;3.90;3.27;;;12.80;99.90;;;;;;5046181;28;20228;-50
2021/10/30 00:04:45;;;;;;;3.67;2.97;;;12.80;99.90;;;;;;5046749;28;20227;-50
2021/10/30 00:07:15;;;;;;;4.50;3.57;;;12.70;99.90;;;;;;5044569;28;20570;-49
2021/10/30 00:09:42;;;;;;;4.63;3.50;;;12.80;99.90;;;;;;5047204;28;20621;-49
2021/10/30 00:12:09;;;;;;;4.20;3.10;;;12.70;99.90;;;;;;5046053;28;20274;-49
2021/10/30 00:14:38;;;;;;;5.17;3.63;;;12.60;99.90;;;;;;5046404;28;20542;-50
2021/10/30 00:17:05;;;;;;;3.87;3.47;;;12.80;99.90;;;;;;5044413;28;20257;-50
2021/10/30 00:19:31;;;;;;;4.13;3.10;;;12.80;99.90;;;;;;5040325;28;20662;-50
2021/10/30 00:21:58;;;;;;;4.33;3.30;;;12.80;99.90;;;;;;5046084;28;20574;-50
2021/10/30 00:24:26;;;;;;;6.73;4.20;;;12.70;99.90;;;;;;5045944;28;20246;-51
2021/10/30 00:26:53;;;;;;;3.77;3.23;;;12.80;99.90;;;;;;5041002;28;20652;-51
2021/10/30 00:29:20;;;;;;;3.63;3.23;;;12.70;99.90;;;;;;5038834;28;20588;-49
2021/10/30 00:31:47;;;;;;;5.77;3.80;;;12.70;99.90;;;;;;5041862;28;20291;-49
2021/10/30 00:34:14;;;;;;;5.03;3.83;;;12.70;99.90;;;;;;5042286;28;20196;-49
2021/10/30 00:36:41;;;;;;;4.40;3.87;;;12.70;99.90;;;;;;5043601;28;20320;-49
2021/10/30 00:39:08;;;;;;;4.60;3.70;;;12.80;99.90;;;;;;5043430;28;20210;-51
2021/10/30 00:41:36;;;;;;;5.40;3.43;;;12.70;99.90;;;;;;5043244;28;20298;-49
2021/10/30 00:44:10;;;;;;;4.27;3.57;;;12.80;99.90;;;;;;5045061;28;20562;-49
2021/10/30 00:46:42;;;;;;;5.27;3.87;;;12.70;99.90;;;;;;5044983;28;20248;-49
2021/10/30 00:49:10;;;;;;;4.40;3.37;;;12.70;99.90;;;;;;5045623;28;20667;-49
2021/10/30 00:51:38;;;;;;;4.17;3.43;;;12.80;99.90;;;;;;5043685;28;20195;-49
2021/10/30 00:54:07;;;;;;;4.37;3.37;;;12.70;99.90;;;;;;5045363;28;20245;-50
2021/10/30 00:56:36;;;;;;;4.00;3.43;;;12.80;99.90;;;;;;5045953;28;20733;-49
2021/10/30 00:59:09;;;;;;;6.07;3.63;;;12.70;99.90;;;;;;5042981;28;20605;-50
2021/10/30 01:01:37;;;;;;;3.77;3.27;;;12.70;99.90;;;;;;5044321;28;20226;-50
2021/10/30 01:04:05;;;;;;;4.60;4.07;;;12.70;99.90;;;;;;5044735;28;20199;-49
2021/10/30 01:06:33;;;;;;;5.73;4.20;;;12.60;99.90;;;;;;5045180;28;20286;-50
2021/10/30 01:09:00;;;;;;;6.77;4.20;;;12.50;99.90;;;;;;5045408;28;20242;-50
2021/10/30 01:11:27;;;;;;;5.67;4.30;;;12.60;99.90;;;;;;5043588;28;20633;-51
2021/10/30 01:13:54;;;;;;;6.27;3.97;;;12.70;99.90;;;;;;5043903;28;20246;-49
2021/10/30 01:16:22;;;;;;;4.37;3.90;;;12.70;99.90;;;;;;5043793;28;20655;-51
2021/10/30 01:18:49;;;;;;;4.47;3.97;;;12.80;99.90;;;;;;5043017;28;20542;-51
2021/10/30 01:21:30;;;;;;;4.73;4.27;;;12.90;99.90;;;;;;5042215;28;20222;-51
2021/10/30 01:23:57;;;;;;;6.10;3.83;;;12.90;99.90;;;;;;5046857;28;20699;-48
2021/10/30 01:26:25;;;;;;;5.63;4.37;;;12.80;99.90;;;;;;5043621;28;20604;-49
2021/10/30 01:28:52;;;;;;;6.23;4.53;;;12.90;99.90;;;;;;5041766;28;20476;-49
2021/10/30 01:31:22;;;;;;;6.17;4.33;;;12.80;99.90;;;;;;5042028;28;20257;-50
2021/10/30 01:33:51;;;;;;;5.23;4.37;;;12.70;99.90;;;;;;5042740;28;20686;-48
2021/10/30 01:36:20;;;;;;;6.37;4.37;;;12.80;99.90;;;;;;5039996;28;20800;-50
2021/10/30 01:38:48;;;;;;;5.30;4.37;;;12.80;99.90;;;;;;5042447;28;20842;-50
2021/10/30 01:41:16;;;;;;;5.27;4.50;;;12.70;99.90;;;;;;5040495;28;20186;-50
2021/10/30 01:43:43;;;;;;;9.33;4.50;;;12.60;99.90;;;;;;5043622;28;20670;-50
2021/10/30 01:46:10;;;;;;;5.17;4.50;;;12.60;99.90;;;;;;5042381;28;20695;-50
2021/10/30 01:48:38;;;;;;;4.30;3.90;;;12.80;99.90;;;;;;5043513;28;20199;-48
2021/10/30 01:51:07;;;;;;;4.57;4.00;;;12.90;99.90;;;;;;5039598;28;20300;-51
2021/10/30 01:53:34;;;;;;;6.90;4.97;;;12.80;99.90;;;;;;5040442;28;20214;-51
2021/10/30 01:56:02;;;;;;;5.20;4.40;;;12.90;99.90;;;;;;5043809;28;20397;-51
2021/10/30 01:58:29;;;;;;;5.53;4.40;;;12.90;99.90;;;;;;5043399;28;20355;-51
2021/10/30 02:00:59;;;;;;;4.97;4.20;;;12.90;99.90;;;;;;5043588;28;20235;-48
2021/10/30 02:03:29;;;;;;;5.03;4.47;;;12.90;99.90;;;;;;5046033;28;20206;-51
2021/10/30 02:05:56;;;;;;;4.87;3.87;;;12.90;99.90;;;;;;5046392;28;20662;-48
2021/10/30 02:08:23;;;;;;;5.07;4.47;;;12.80;99.90;;;;;;5045892;28;20229;-50
2021/10/30 02:10:50;;;;;;;5.07;4.27;;;12.80;99.90;;;;;;5045882;28;20198;-51
2021/10/30 02:13:19;;;;;;;5.10;3.97;;;12.80;99.90;;;;;;5046736;28;20228;-50
2021/10/30 02:15:46;;;;;;;6.07;4.20;;;12.80;99.90;;;;;;5047264;28;21140;-50
2021/10/30 02:18:13;;;;;;;6.40;4.40;;;12.80;99.90;;;;;;5045906;28;20759;-51
2021/10/30 02:20:41;;;;;;;5.97;4.20;;;12.80;99.90;;;;;;5044112;28;20243;-51
2021/10/30 02:23:08;;;;;;;4.77;4.07;;;12.80;99.90;;;;;;5047510;28;20200;-50
2021/10/30 02:25:35;;;;;;;4.60;4.03;;;12.90;99.90;;;;;;5042390;28;20552;-49
2021/10/30 02:28:03;;;;;;;6.20;4.17;;;12.80;99.90;;;;;;5047682;28;20246;-51
2021/10/30 02:30:35;;;;;;;6.57;4.23;;;12.90;99.90;;;;;;5046014;28;20192;-50
2021/10/30 02:33:02;;;;;;;7.57;3.77;;;12.90;99.90;;;;;;5046883;28;20304;-50
2021/10/30 02:35:30;;;;;;;4.47;4.07;;;12.90;99.90;;;;;;5046767;28;20195;-50
2021/10/30 02:37:57;;;;;;;6.00;4.00;;;12.90;99.90;;;;;;5043551;28;20223;-50
2021/10/30 02:40:24;;;;;;;5.50;4.23;;;12.90;99.90;;;;;;5045678;28;20195;-50
2021/10/30 02:42:51;;;;;;;8.47;3.97;;;13.00;99.90;;;;;;5043043;28;20559;-50
2021/10/30 02:45:18;;;;;;;5.43;4.83;;;13.00;99.90;;;;;;5044194;28;20257;-50
2021/10/30 02:47:45;;;;;;;6.60;4.43;;;12.90;99.90;;;;;;5042524;28;20202;-51
2021/10/30 02:50:12;;;;;;;5.53;4.70;;;12.90;99.90;;;;;;5045468;28;20642;-51
2021/10/30 02:52:40;;;;;;;4.67;4.13;;;12.90;99.90;;;;;;5044401;28;20556;-48
2021/10/30 02:55:08;;;;;;;4.70;4.10;;;12.90;99.90;;;;;;5042508;28;20195;-51
2021/10/30 02:57:35;;;;;;;5.47;4.40;;;12.90;99.90;;;;;;5046330;28;20203;-52
2021/10/30 03:00:07;;;;;;;6.37;4.73;;;12.90;99.90;;;;;;5042652;28;20253;-49
2021/10/30 03:02:33;;;;;;;7.53;4.67;;;12.90;99.90;;;;;;5034356;28;20228;-49
2021/10/30 03:05:01;;;;;;;5.07;4.47;;;12.90;99.90;;;;;;5034683;28;20256;-49
2021/10/30 03:07:28;;;;;;;7.23;4.73;;;12.90;99.90;;;;;;5032158;28;20326;-49
2021/10/30 03:09:55;;;;;;;6.53;4.97;;;12.90;99.90;;;;;;5032928;28;20205;-49
2021/10/30 03:12:22;;;;;;;5.60;5.00;;;12.90;99.90;;;;;;5035207;28;20304;-51
2021/10/30 03:14:49;;;;;;;6.47;4.83;;;12.80;99.90;;;;;;5029869;28;20226;-51
2021/10/30 03:17:16;;;;;;;6.53;5.33;;;12.80;99.90;;;;;;5038688;28;20206;-49
2021/10/30 03:19:42;;;;;;;5.57;4.63;;;12.90;99.90;;;;;;5033628;28;20225;-49
2021/10/30 03:22:09;;;;;;;7.40;5.23;;;12.80;99.90;;;;;;5042262;28;20286;-48
2021/10/30 03:24:36;;;;;;;7.30;5.27;;;12.80;99.90;;;;;;5044388;28;20290;-49
2021/10/30 03:27:04;;;;;;;6.30;4.80;;;12.80;99.90;;;;;;5043008;28;20314;-52
2021/10/30 03:29:31;;;;;;;5.57;5.03;;;12.80;99.90;;;;;;5043701;28;20206;-49
2021/10/30 03:31:58;;;;;;;5.53;4.80;;;12.90;99.90;;;;;;5041056;28;20202;-49
2021/10/30 03:34:25;;;;;;;6.93;4.80;;;12.90;99.90;;;;;;5047303;28;20216;-52
2021/10/30 03:36:51;;;;;;;6.87;5.27;;;12.90;99.90;;;;;;5043924;28;20288;-51
2021/10/30 03:39:18;;;;;;;5.97;4.60;;;12.90;99.90;;;;;;5045691;28;20198;-51
2021/10/30 03:41:45;;;;;;;5.80;5.20;;;12.90;99.90;;;;;;5040978;28;20669;-49
2021/10/30 03:44:12;;;;;;;5.67;4.80;;;12.90;99.90;;;;;;5043468;28;20214;-48
2021/10/30 03:46:39;;;;;;;7.07;5.47;;;12.90;99.90;;;;;;5039833;28;20276;-49
2021/10/30 03:49:06;;;;;;;7.93;5.40;;;13.00;99.90;;;;;;5042959;28;20527;-49
2021/10/30 03:51:33;;;;;;;6.47;5.20;;;13.00;99.90;;;;;;5044274;28;20296;-50
2021/10/30 03:54:00;;;;;;;5.73;5.13;;;13.00;99.90;;;;;;5043991;28;20221;-49
2021/10/30 03:56:27;;;;;;;7.37;5.20;;;13.10;99.90;;;;;;5045139;28;20261;-49
2021/10/30 03:58:54;;;;;;;8.70;4.93;;;13.10;99.90;;;;;;5045843;28;20194;-48
2021/10/30 04:01:21;;;;;;;5.60;5.03;;;13.10;99.90;;;;;;5043501;28;20446;-49
2021/10/30 04:03:48;;;;;;;6.97;5.23;;;13.10;99.90;;;;;;5045498;28;20618;-49
2021/10/30 04:06:15;;;;;;;6.50;4.63;;;13.10;99.90;;;;;;5041247;28;20258;-49
2021/10/30 04:08:44;;;;;;;5.83;4.97;;;13.20;99.90;;;;;;5041024;28;20263;-49
2021/10/30 04:11:13;;;;;;;6.73;5.17;;;13.20;99.90;;;;;;5040222;28;20299;-49
2021/10/30 04:13:40;;;;;;;6.37;5.50;;;13.30;99.90;;;;;;5043976;28;20318;-49
2021/10/30 04:16:07;;;;;;;7.10;5.63;;;13.30;99.90;;;;;;5045625;28;20227;-52
2021/10/30 04:18:34;;;;;;;6.93;5.80;;;13.30;99.90;;;;;;5041437;28;20545;-49
2021/10/30 04:21:01;;;;;;;6.83;6.13;;;13.20;99.90;;;;;;5045680;28;20202;-52
2021/10/30 04:23:28;;;;;;;6.50;5.20;;;13.20;99.90;;;;;;5046910;28;20255;-49
2021/10/30 04:25:55;;;;;;;8.70;5.70;;;13.20;99.90;;;;;;5045116;28;20223;-50
2021/10/30 04:28:21;;;;;;;7.47;5.70;;;13.20;99.90;;;;;;5043614;28;20202;-51
2021/10/30 04:30:48;;;;;;;5.97;5.13;;;13.20;99.90;;;;;;5045212;28;20234;-49
2021/10/30 04:33:17;;;;;;;5.80;5.20;;;13.20;99.90;;;;;;5045427;28;20217;-51
2021/10/30 04:35:44;;;;;;;5.87;5.27;;;13.20;99.90;;;;;;5045677;28;20249;-51
2021/10/30 04:38:11;;;;;;;6.13;5.53;;;13.20;99.90;;;;;;5044545;28;20222;-49
2021/10/30 04:40:38;;;;;;;9.53;5.03;;;13.10;99.90;;;;;;5042251;28;20225;-49
2021/10/30 04:43:05;;;;;;;8.67;6.10;;;13.00;99.90;;;;;;5048108;28;20222;-50
2021/10/30 04:45:32;;;;;;;6.33;5.53;;;13.10;99.90;;;;;;5044983;28;20213;-50
2021/10/30 04:48:00;;;;;;;8.07;6.10;;;13.10;99.90;;;;;;5046120;28;20218;-49
2021/10/30 04:50:27;;;;;;;7.70;6.17;;;13.10;99.90;;;;;;5043267;28;20206;-50
2021/10/30 04:52:54;;;;;;;6.87;6.03;;;13.10;99.90;;;;;;5049132;28;20198;-49
2021/10/30 04:55:21;;;;;;;7.10;5.27;;;13.00;99.90;;;;;;5045803;28;20290;-49
2021/10/30 04:57:48;;;;;;;8.20;5.97;;;13.00;99.90;;;;;;5043282;28;20202;-50
2021/10/30 05:00:15;;;;;;;8.03;5.63;;;13.00;99.90;;;;;;5043712;28;20226;-50
2021/10/30 05:02:42;;;;;;;9.67;5.73;;;13.00;99.90;;;;;;5046808;28;20210;-49
2021/10/30 05:05:09;;;;;;;7.37;6.07;;;12.90;99.90;;;;;;5045354;28;20214;-49
2021/10/30 05:07:36;;;;;;;6.50;5.23;;;13.00;99.90;;;;;;5043954;28;20268;-49
2021/10/30 05:10:04;;;;;;;7.43;5.70;;;13.00;99.90;;;;;;5043184;28;20755;-49
2021/10/30 05:12:31;;;;;;;11.60;5.60;;;13.00;99.90;;;;;;5043252;28;20257;-49
2021/10/30 05:14:57;;;;;;;6.67;5.70;;;13.00;99.90;;;;;;5042226;28;20225;-49
2021/10/30 05:17:28;;;;;;;6.93;5.00;;;13.00;99.90;;;;;;5039435;28;20205;-51
2021/10/30 05:19:55;;;;;;;7.40;5.60;;;12.90;99.90;;;;;;5042600;28;20221;-49
2021/10/30 05:22:22;;;;;;;7.50;5.43;;;12.90;99.90;;;;;;5043744;28;20201;-50
2021/10/30 05:24:48;;;;;;;6.60;5.80;;;12.90;99.90;;;;;;5039912;28;20953;-49
2021/10/30 05:27:16;;;;;;;6.67;5.17;;;12.90;99.90;;;;;;5041133;28;20232;-51
2021/10/30 05:29:42;;;;;;;7.23;5.33;;;12.90;99.90;;;;;;5040524;28;20211;-49
2021/10/30 05:32:09;;;;;;;6.53;5.70;;;12.90;99.90;;;;;;5044010;28;20225;-50
2021/10/30 05:34:36;;;;;;;7.53;5.73;;;12.80;99.90;;;;;;5046265;28;20745;-51
2021/10/30 05:37:03;;;;;;;8.23;5.57;;;12.80;99.90;;;;;;5047252;28;20221;-49
2021/10/30 05:39:30;;;;;;;8.00;5.23;;;12.90;99.90;;;;;;5045734;28;20187;-49
2021/10/30 05:41:57;;;;;;;7.03;4.87;;;12.80;99.90;;;;;;5043570;28;20202;-49
2021/10/30 05:44:24;;;;;;;7.00;5.20;;;12.80;99.90;;;;;;5045557;28;20225;-49
2021/10/30 05:46:51;;;;;;;7.70;5.57;;;12.80;99.90;;;;;;5041378;28;20288;-50
2021/10/30 05:49:19;;;;;;;5.40;4.90;;;12.80;99.90;;;;;;5044588;28;20748;-49
2021/10/30 05:51:47;;;;;;;7.13;5.27;;;12.70;99.90;;;;;;5042578;28;20247;-48
2021/10/30 05:54:13;;;;;;;7.53;5.13;;;12.80;99.90;;;;;;5047078;28;20221;-51
2021/10/30 05:56:40;;;;;;;5.87;4.73;;;12.80;99.90;;;;;;5044872;28;20284;-49
2021/10/30 05:59:07;;;;;;;6.20;5.33;;;12.80;99.90;;;;;;5043705;28;20676;-49
2021/10/30 06:01:34;;;;;;;7.17;5.60;;;12.70;99.90;;;;;;5040961;28;20460;-49
2021/10/30 06:04:01;;;;;;;7.87;5.27;;;12.70;99.90;;;;;;5041790;28;20212;-48
2021/10/30 06:06:28;;;;;;;7.47;5.87;;;12.70;99.90;;;;;;5044263;28;20198;-49
2021/10/30 06:08:54;;;;;;;5.63;5.00;;;12.60;99.90;;;;;;5043817;28;20208;-50
2021/10/30 06:11:21;;;;;;;7.40;4.87;;;12.60;99.90;;;;;;5044119;28;20250;-49
2021/10/30 06:13:48;;;;;;;8.77;5.40;;;12.60;99.90;;;;;;5043739;28;20277;-49
2021/10/30 06:16:15;;;;;;;6.93;5.27;;;12.60;99.90;;;;;;5042481;28;20199;-49
2021/10/30 06:18:42;;;;;;;6.07;5.00;;;12.70;99.90;;;;;;5045185;28;20280;-49
2021/10/30 06:21:09;;;;;;;9.33;5.93;;;12.60;99.90;;;;;;5044694;28;20202;-49
2021/10/30 06:23:36;;;;;;;6.37;5.30;;;12.60;99.90;;;;;;5044207;28;20709;-49
2021/10/30 06:26:04;;;;;;;6.40;5.27;;;12.50;99.90;;;;;;5044580;28;20208;-49
2021/10/30 06:28:31;;;;;;;8.53;5.63;;;12.50;99.90;;;;;;5046722;28;20200;-51
2021/10/30 06:30:58;;;;;;;7.33;5.47;;;12.60;99.90;;;;;;5042368;28;20200;-49
2021/10/30 06:33:25;;;;;;;6.90;5.30;;;12.60;99.90;;;;;;5045523;28;20199;-50
2021/10/30 06:35:52;;;;;;;7.43;5.67;;;12.70;99.90;;;;;;5043515;28;20288;-49
2021/10/30 06:38:19;;;;;;;8.50;6.53;;;12.50;99.90;;;;;;5043356;28;20224;-52
2021/10/30 06:40:46;;;;;;;8.87;5.67;;;12.60;99.90;;;;;;5044332;28;20538;-49
2021/10/30 06:43:13;;;;;;;7.90;5.40;;;12.60;99.90;;;;;;5044356;28;20356;-51
2021/10/30 06:45:40;;;;;;;7.77;5.67;;;12.50;99.90;;;;;;5041517;28;20290;-49
2021/10/30 06:48:07;;;;;;;11.30;6.07;;;12.60;99.90;;;;;;5042721;28;20218;-50
2021/10/30 06:50:34;;;;;;;7.80;6.07;;;12.70;99.90;;;;;;5043245;28;20193;-50
2021/10/30 06:53:01;;;;;;;6.27;5.40;;;12.80;99.90;;;;;;5044867;28;20607;-49
2021/10/30 06:55:28;;;;;;;10.20;5.67;;;12.60;99.90;;;;;;5045532;28;20212;-49
2021/10/30 06:57:55;;;;;;;9.27;5.60;;;12.60;99.90;;;;;;5045621;28;20229;-50
2021/10/30 07:00:22;;;;;;;6.20;5.60;;;12.60;99.90;;;;;;5042442;28;20236;-51
2021/10/30 07:02:52;;;;;;;9.57;6.53;;;12.50;99.90;;;;;;5048788;28;20255;-49
2021/10/30 07:05:20;;;;;;;7.47;5.40;;;12.50;99.90;;;;;;5038640;28;20208;-50
2021/10/30 07:07:48;;;;;;;8.03;5.50;;;12.50;99.90;;;;;;5043609;28;20578;-50
2021/10/30 07:10:15;;;;;;;8.73;5.63;;;12.40;99.90;;;;;;5039815;28;20199;-52
2021/10/30 07:12:43;;;;;;;7.90;5.87;;;12.50;99.90;;;;;;5034888;28;20625;-52
2021/10/30 07:15:12;;;;;;;7.87;5.67;;;12.50;99.90;;;;;;5041569;28;20240;-49
2021/10/30 07:17:40;;;;;;;7.73;5.40;;;12.50;99.90;;;;;;5045671;28;20593;-49
2021/10/30 07:20:08;;;;;;;7.47;5.27;;;12.50;99.90;;;;;;5034123;28;20303;-49
2021/10/30 07:22:46;;;;;;;7.53;5.40;;;12.50;99.90;;;;;;5033152;28;20242;-49
2021/10/30 07:25:15;;;;;;;6.80;4.97;;;12.50;99.90;;;;;;5035460;28;20201;-49
2021/10/30 07:27:42;;;;;;;7.67;5.67;;;12.50;99.90;;;;;;5034071;28;20750;-52
2021/10/30 07:30:11;;;;;;;6.90;5.33;;;12.50;99.90;;;;;;5034051;28;20407;-51
2021/10/30 07:32:39;;;;;;;7.73;5.60;;;12.50;99.90;;;;;;5034141;28;20238;-48
2021/10/30 07:35:07;;;;;;;6.40;5.27;;;12.60;99.90;;;;;;5032103;28;20215;-48
2021/10/30 07:37:34;;;;;;;9.10;5.73;;;12.50;99.90;;;;;;5035434;28;20257;-50
2021/10/30 07:40:02;;;;;;;6.93;5.53;;;12.60;99.90;;;;;;5041360;28;20206;-49
2021/10/30 07:42:29;;;;;;;6.80;5.40;;;12.60;99.90;;;;;;5043961;28;20551;-50
2021/10/30 07:44:56;;;;;;;6.73;4.77;;;12.60;99.90;;;;;;5041614;28;20233;-49
2021/10/30 07:47:23;;;;;;;6.63;5.00;;;12.60;99.90;;;;;;5045292;28;20582;-49
2021/10/30 07:49:50;;;;;;;9.63;5.30;;;12.50;99.90;;;;;;5044287;28;20774;-49
2021/10/30 07:52:17;;;;;;;6.43;5.13;;;12.50;99.90;;;;;;5042529;28;20306;-49
2021/10/30 07:54:47;;;;;;;6.97;5.10;;;12.40;99.90;;;;;;5046522;28;20534;-52
2021/10/30 07:57:14;;;;;;;6.50;4.67;;;12.50;99.90;;;;;;5034980;28;20758;-48
2021/10/30 07:59:41;;;;;;;7.47;5.10;;;12.60;99.90;;;;;;5044009;28;20206;-49
2021/10/30 08:02:08;;;;;;;6.30;5.10;;;12.60;99.90;;;;;;5042279;28;20190;-49
2021/10/30 08:04:36;;;;;;;6.73;4.87;;;12.50;99.90;;;;;;5043339;28;20201;-49
2021/10/30 08:07:04;;;;;;;8.40;5.77;;;12.50;99.90;;;;;;5040922;28;20739;-49
2021/10/30 08:09:32;;;;;;;7.20;5.10;;;12.50;99.90;;;;;;5040838;28;20641;-50
2021/10/30 08:11:59;;;;;;;7.77;5.83;;;12.50;99.90;;;;;;5024009;28;20711;-50
2021/10/30 08:14:26;;;;;;;6.20;4.97;;;12.70;99.90;;;;;;5033253;28;20458;-49
2021/10/30 08:16:53;;;;;;;5.37;4.67;;;12.60;99.90;;;;;;5044437;28;20197;-50
2021/10/30 08:19:20;;;;;;;6.00;5.10;;;12.60;99.90;;;;;;5052411;28;20194;-51
2021/10/30 08:21:47;;;;;;;11.90;5.50;;;12.60;99.90;;;;;;5050351;28;20343;-51
2021/10/30 08:24:21;;;;;;;6.17;4.80;;;12.60;99.90;;;;;;5053953;28;20633;-50
2021/10/30 08:26:48;;;;;;;6.87;4.70;;;12.50;99.90;;;;;;5048901;28;20201;-50
2021/10/30 08:29:15;;;;;;;5.73;4.53;;;12.60;99.90;;;;;;5048879;28;20209;-51
2021/10/30 08:31:44;;;;;;;6.70;4.27;;;12.50;99.90;;;;;;5046701;28;20207;-50
2021/10/30 08:34:11;;;;;;;10.00;4.97;;;12.50;99.90;;;;;;5050385;28;20260;-49
2021/10/30 08:36:38;;;;;;;4.97;4.33;;;12.60;99.90;;;;;;5040769;28;20216;-62
2021/10/30 08:39:05;;;;;;;7.50;4.53;;;12.50;99.90;;;;;;5031279;28;20202;-63
2021/10/30 08:41:32;;;;;;;6.60;4.20;;;12.50;99.90;;;;;;5009283;28;20206;-62
2021/10/30 08:44:02;;;;;;;6.53;4.30;;;12.60;99.90;;;;;;5021994;28;20261;-61
2021/10/30 08:46:29;;;;;;;8.67;4.87;;;12.60;99.90;;;;;;5033492;28;20285;-62
2021/10/30 08:49:01;;;;;;;6.07;4.67;;;12.60;99.90;;;;;;5029517;28;20204;-62
2021/10/30 08:51:33;;;;;;;7.70;4.00;;;12.50;99.90;;;;;;5035312;28;20769;-62
2021/10/30 08:54:00;;;;;;;6.90;4.43;;;12.60;99.90;;;;;;5039799;28;20497;-61
2021/10/30 08:56:27;;;;;;;4.53;4.10;;;12.60;99.90;;;;;;5033731;28;20223;-62
2021/10/30 08:58:55;;;;;;;6.17;4.40;;;12.50;99.90;;;;;;5035861;28;20558;-62
2021/10/30 09:01:21;;;;;;;5.93;4.20;;;12.60;99.90;;;;;;5039854;28;22570;-62
2021/10/30 09:04:01;;;;;;;5.60;4.43;;;12.60;99.90;;;;;;5036293;28;20204;-62
2021/10/30 09:06:37;;;;;;;6.27;4.23;;;12.70;99.90;;;;;;5035968;28;20715;-62
2021/10/30 09:09:15;;;;;;;4.73;4.13;;;12.80;99.90;;;;;;5037231;28;20296;-63
2021/10/30 09:11:51;;;;;;;5.90;4.73;;;12.70;99.90;;;;;;5036819;28;20227;-62
2021/10/30 09:14:22;;;;;;;5.77;4.10;;;12.70;99.90;;;;;;5030113;28;20275;-61
2021/10/30 09:17:16;;;;;;;7.50;3.80;;;12.70;99.90;;;;;;5032764;28;20300;-62
2021/10/30 09:19:50;;;;;;;5.70;3.90;;;12.70;99.90;;;;;;5029031;28;20228;-61
2021/10/30 09:22:19;;;;;;;6.70;4.40;;;12.70;99.90;;;;;;5026799;28;20624;-61
2021/10/30 09:24:58;;;;;;;4.57;3.67;;;12.70;99.90;;;;;;5025456;28;20671;-61
2021/10/30 09:27:43;;;;;;;5.20;4.23;;;12.70;99.90;;;;;;5027643;28;20209;-62
2021/10/30 09:30:11;;;;;;;5.10;3.90;;;12.70;99.90;;;;;;5030336;28;20221;-61
2021/10/30 09:32:39;;;;;;;6.53;4.00;;;12.70;99.90;;;;;;5027936;28;20287;-62
2021/10/30 09:35:06;;;;;;;7.00;4.17;;;12.80;99.90;;;;;;5030351;28;21435;-64
2021/10/30 09:37:34;;;;;;;4.90;3.57;;;12.80;99.90;;;;;;5018163;28;20221;-62
2021/10/30 09:40:23;;;;;;;5.53;4.00;;;12.80;99.90;;;;;;5010573;28;20203;-62
2021/10/30 09:43:17;;;;;;;6.57;4.03;;;12.90;99.90;;;;;;5028047;28;20712;-62
2021/10/30 09:45:47;;;;;;;5.20;4.10;;;12.80;99.90;;;;;;5029590;28;20352;-63
2021/10/30 09:48:23;;;;;;;4.97;3.97;;;12.80;99.90;;;;;;5026732;28;20218;-62
2021/10/30 09:50:58;;;;;;;6.13;3.90;;;12.80;99.90;;;;;;5027937;28;20260;-62
2021/10/30 09:53:39;;;;;;;8.13;4.13;;;12.70;99.90;;;;;;5028568;28;20222;-62
2021/10/30 09:56:11;;;;;;;6.60;3.70;;;12.80;99.90;;;;;;5024936;28;20217;-62
2021/10/30 09:58:43;;;;;;;4.37;3.57;;;12.80;99.90;;;;;;5030912;28;20219;-62
2021/10/30 10:01:28;;;;;;;7.10;3.90;;;12.80;99.90;;;;;;5027511;28;20208;-62
2021/10/30 10:03:59;;;;;;;4.30;3.90;;;12.90;99.90;;;;;;5027159;28;20201;-62
2021/10/30 10:06:25;;;;;;;4.83;3.70;;;12.80;99.90;;;;;;5031041;28;20247;-62
2021/10/30 10:08:52;;;;;;;5.33;4.37;;;12.80;99.90;;;;;;5030939;28;20608;-63
2021/10/30 10:11:20;;;;;;;6.37;3.87;;;12.90;99.90;;;;;;5029908;28;20690;-63
2021/10/30 10:13:49;;;;;;;4.43;3.57;;;12.80;99.90;;;;;;5031705;28;20385;-63
2021/10/30 10:16:19;;;;;;;4.77;3.73;;;12.80;99.90;;;;;;5031380;28;20249;-62
2021/10/30 10:18:53;;;;;;;5.87;4.00;;;12.80;99.90;;;;;;5039579;28;20481;-63
2021/10/30 10:21:26;;;;;;;5.37;3.73;;;12.80;99.90;;;;;;5039597;28;20279;-61
2021/10/30 10:24:20;;;;;;;5.00;3.87;;;12.90;99.90;;;;;;5038783;28;20202;-61
2021/10/30 10:26:47;;;;;;;5.17;3.63;;;12.90;99.90;;;;;;5037233;28;20234;-61
2021/10/30 10:29:43;;;;;;;4.43;3.43;;;12.90;99.90;;;;;;5043924;28;20679;-60
2021/10/30 10:32:16;;;;;;;4.83;3.60;;;13.00;99.90;;;;;;5033679;28;20223;-60
2021/10/30 10:34:45;;;;;;;5.63;3.53;;;12.90;99.90;;;;;;5042637;28;20294;-62
2021/10/30 10:37:12;;;;;;;4.80;3.20;;;12.90;99.90;;;;;;5037767;28;20683;-61
2021/10/30 10:39:47;;;;;;;6.03;3.53;;;12.90;99.90;;;;;;5041951;28;20255;-59
2021/10/30 10:42:37;;;;;;;4.60;3.47;;;12.90;99.90;;;;;;5036364;28;20226;-61
2021/10/30 10:45:08;;;;;;;4.30;3.07;;;12.90;99.90;;;;;;5040177;28;20223;-61
2021/10/30 10:47:35;;;;;;;6.87;3.43;;;12.90;99.90;;;;;;5017669;28;20239;-61
2021/10/30 10:50:17;;;;;;;3.53;3.20;;;13.00;99.90;;;;;;5039039;28;20309;-64
2021/10/30 10:52:59;;;;;;;4.57;2.93;;;13.00;99.90;;;;;;5035089;28;20244;-60
2021/10/30 10:55:28;;;;;;;4.10;3.40;;;13.00;99.90;;;;;;5038630;28;20218;-60
2021/10/30 10:58:01;;;;;;;3.90;3.20;;;13.10;99.90;;;;;;5038997;28;20193;-60
2021/10/30 11:00:29;;;;;;;3.67;3.03;;;13.10;99.90;;;;;;5038745;28;20411;-60
2021/10/30 11:02:56;;;;;;;3.70;3.00;;;13.10;99.90;;;;;;5036359;28;20279;-60
2021/10/30 11:05:35;;;;;;;3.10;2.73;;;13.10;99.90;;;;;;5032824;28;20236;-60
2021/10/30 11:08:12;;;;;;;5.07;3.60;;;13.10;99.90;;;;;;5032933;28;20355;-60
2021/10/30 11:10:44;;;;;;;6.90;3.33;;;13.20;99.90;;;;;;5040746;28;20205;-60
2021/10/30 11:13:17;;;;;;;5.20;3.10;;;13.30;99.90;;;;;;5030875;28;20237;-60
2021/10/30 11:15:52;;;;;;;4.63;2.97;;;13.20;99.90;;;;;;5039868;28;20768;-60
2021/10/30 11:18:25;;;;;;;4.07;3.13;;;13.30;99.90;;;;;;5031704;28;20919;-50
2021/10/30 11:21:07;;;;;;;3.57;2.87;;;13.40;99.90;;;;;;5031209;28;20207;-49
2021/10/30 11:23:45;;;;;;;6.73;2.77;;;13.30;99.90;;;;;;5043640;28;20199;-51
2021/10/30 11:26:27;;;;;;;4.47;2.60;;;13.40;99.90;;;;;;5059104;28;20344;-52
2021/10/30 11:29:03;;;;;;;5.17;2.87;;;13.40;99.90;;;;;;5035700;28;20195;-51
2021/10/30 11:31:30;;;;;;;3.37;3.07;;;13.50;99.90;;;;;;5035679;28;20289;-50
2021/10/30 11:34:02;;;;;;;2.93;2.57;;;13.40;99.90;;;;;;5040232;28;20284;-49
2021/10/30 11:36:37;;;;;;;4.97;2.70;;;13.40;99.90;;;;;;5043846;28;20224;-49
2021/10/30 11:39:06;;;;;;;2.37;2.07;;;13.50;99.90;;;;;;5044502;28;20227;-51
2021/10/30 11:41:35;;;;;;;4.43;2.40;;;13.60;99.90;;;;;;5036850;28;20781;-51
2021/10/30 11:44:11;;;;;;;3.53;2.30;;;13.60;99.90;;;;;;5036063;28;20206;-50
2021/10/30 11:46:40;;;;;;;2.43;2.07;;;13.70;99.90;;;;;;5039372;28;20287;-50
2021/10/30 11:49:08;;;;;;;3.63;2.10;;;13.70;99.90;;;;;;5039761;28;20584;-50
2021/10/30 11:51:34;;;;;;;2.80;2.20;;;13.70;99.90;;;;;;5042713;28;20245;-50
2021/10/30 11:54:03;;;;;;;2.73;2.03;;;13.80;99.90;;;;;;5035053;28;20649;-50
2021/10/30 11:56:31;;;;;;;2.90;2.33;;;13.70;99.90;;;;;;5035449;28;20355;-51
2021/10/30 11:59:03;;;;;;;3.53;2.00;;;13.80;99.90;;;;;;5034359;28;20236;-51
2021/10/30 12:01:47;;;;;;;2.50;1.90;;;13.80;99.90;;;;;;5038052;28;20616;-50
2021/10/30 12:04:20;;;;;;;3.83;2.00;;;13.80;99.90;;;;;;5041068;28;20663;-51
2021/10/30 12:07:07;;;;;;;2.53;1.70;;;13.80;99.90;;;;;;5036522;28;20684;-49
2021/10/30 12:09:45;;;;;;;3.33;2.00;;;13.80;99.90;;;;;;5038337;28;20196;-50
2021/10/30 12:12:21;;;;;;;2.23;2.03;;;13.80;99.90;;;;;;5033014;28;20237;-51
2021/10/30 12:14:53;;;;;;;3.10;1.60;;;13.90;99.90;;;;;;5034048;28;20251;-50
2021/10/30 12:17:29;;;;;;;2.20;1.70;;;13.90;99.90;;;;;;5037061;28;20196;-49
2021/10/30 12:20:01;;;;;;;2.30;1.77;;;13.90;99.90;;;;;;5034990;28;20188;-49
2021/10/30 12:22:46;;;;;;;4.03;2.00;;;13.90;99.90;;;;;;5032615;28;20198;-48
2021/10/30 12:25:25;;;;;;;3.63;1.80;;;14.20;99.90;;;;;;5039055;28;20604;-52
2021/10/30 12:27:55;;;;;;;2.00;1.77;;;14.60;99.90;;;;;;5033842;28;20192;-51
2021/10/30 12:30:32;;;;;;;3.03;1.73;;;14.60;99.90;;;;;;5036326;28;20223;-50
2021/10/30 12:33:09;;;;;;;1.70;1.60;;;14.50;99.90;;;;;;5036007;28;20635;-49
2021/10/30 12:35:43;;;;;;;2.63;1.60;;;14.40;99.90;;;;;;5034876;28;20225;-49
2021/10/30 12:38:22;;;;;;;3.43;1.53;;;14.40;99.90;;;;;;5036244;28;20218;-49
2021/10/30 12:40:50;;;;;;;2.70;1.40;;;14.30;99.90;;;;;;5027359;28;20838;-50
2021/10/30 12:43:30;;;;;;;1.87;1.50;;;14.40;99.90;;;;;;5034619;28;20215;-49
2021/10/30 12:46:02;;;;;;;1.90;1.50;;;14.40;99.90;;;;;;5028229;28;20246;-50
2021/10/30 12:48:38;;;;;;;1.63;1.27;;;14.30;99.90;;;;;;5035562;28;20289;-49
2021/10/30 12:51:16;;;;;;;1.43;1.20;;;14.40;99.90;;;;;;5039352;28;20289;-50
2021/10/30 12:53:45;;;;;;;2.00;1.60;;;14.30;99.90;;;;;;5041230;28;20200;-51
2021/10/30 12:56:19;;;;;;;2.30;1.20;;;14.30;99.90;;;;;;5039626;28;20356;-51
2021/10/30 12:58:55;;;;;;;2.13;1.30;;;14.30;99.90;;;;;;5033097;28;20244;-50